sensor_id;sensor_type;location;lat;lon;timestamp;P1;durP1;ratioP1;P2;durP2;ratioP2
1987;SDS011;12775;46.994;15.498;2023-09-30T00:01:59;10.86;;;8.96;;
1987;SDS011;12775;46.994;15.498;2023-09-30T00:04:25;9.42;;;8.62;;
1987;SDS011;12775;46.994;15.498;2023-09-30T00:06:52;9.26;;;8.36;;
1987;SDS011;12775;46.994;15.498;2023-09-30T00:09:19;10.28;;;8.50;;
1987;SDS011;12775;46.994;15.498;2023-09-30T00:11:46;9.30;;;8.40;;
1987;SDS011;12775;46.994;15.498;2023-09-30T00:14:13;9.28;;;8.36;;
1987;SDS011;12775;46.994;15.498;2023-09-30T00:16:39;9.72;;;8.82;;
1987;SDS011;12775;46.994;15.498;2023-09-30T00:19:06;11.18;;;10.14;;
1987;SDS011;12775;46.994;15.498;2023-09-30T00:21:32;10.76;;;8.20;;
1987;SDS011;12775;46.994;15.498;2023-09-30T00:23:59;9.60;;;8.70;;
1987;SDS011;12775;46.994;15.498;2023-09-30T00:26:26;10.76;;;9.46;;
1987;SDS011;12775;46.994;15.498;2023-09-30T00:28:52;11.54;;;10.52;;
1987;SDS011;12775;46.994;15.498;2023-09-30T00:31:19;9.94;;;8.96;;
1987;SDS011;12775;46.994;15.498;2023-09-30T00:33:45;11.80;;;9.42;;
1987;SDS011;12775;46.994;15.498;2023-09-30T00:36:12;12.96;;;11.82;;
1987;SDS011;12775;46.994;15.498;2023-09-30T00:38:39;15.76;;;11.50;;
1987;SDS011;12775;46.994;15.498;2023-09-30T00:41:05;11.16;;;10.22;;
1987;SDS011;12775;46.994;15.498;2023-09-30T00:43:33;13.82;;;10.92;;
1987;SDS011;12775;46.994;15.498;2023-09-30T00:46:12;8.84;;;7.82;;
1987;SDS011;12775;46.994;15.498;2023-09-30T00:48:39;15.52;;;9.30;;
1987;SDS011;12775;46.994;15.498;2023-09-30T00:51:06;10.26;;;9.28;;
1987;SDS011;12775;46.994;15.498;2023-09-30T00:53:33;11.14;;;9.78;;
1987;SDS011;12775;46.994;15.498;2023-09-30T00:56:00;13.26;;;11.42;;
1987;SDS011;12775;46.994;15.498;2023-09-30T00:58:26;10.92;;;10.00;;
1987;SDS011;12775;46.994;15.498;2023-09-30T01:00:53;16.04;;;10.06;;
1987;SDS011;12775;46.994;15.498;2023-09-30T01:03:19;15.98;;;9.88;;
1987;SDS011;12775;46.994;15.498;2023-09-30T01:05:46;12.74;;;11.24;;
1987;SDS011;12775;46.994;15.498;2023-09-30T01:08:13;14.94;;;11.32;;
1987;SDS011;12775;46.994;15.498;2023-09-30T01:10:40;14.78;;;13.28;;
1987;SDS011;12775;46.994;15.498;2023-09-30T01:13:07;14.18;;;12.42;;
1987;SDS011;12775;46.994;15.498;2023-09-30T01:15:33;14.34;;;12.94;;
1987;SDS011;12775;46.994;15.498;2023-09-30T01:18:00;13.10;;;11.92;;
1987;SDS011;12775;46.994;15.498;2023-09-30T01:20:26;13.56;;;10.52;;
1987;SDS011;12775;46.994;15.498;2023-09-30T01:22:53;12.28;;;10.52;;
1987;SDS011;12775;46.994;15.498;2023-09-30T01:25:20;13.16;;;11.76;;
1987;SDS011;12775;46.994;15.498;2023-09-30T01:27:46;12.60;;;11.36;;
1987;SDS011;12775;46.994;15.498;2023-09-30T01:30:14;15.44;;;12.74;;
1987;SDS011;12775;46.994;15.498;2023-09-30T01:32:41;14.56;;;12.26;;
1987;SDS011;12775;46.994;15.498;2023-09-30T01:35:08;10.72;;;9.68;;
1987;SDS011;12775;46.994;15.498;2023-09-30T01:37:34;12.84;;;10.30;;
1987;SDS011;12775;46.994;15.498;2023-09-30T01:40:02;11.72;;;9.80;;
1987;SDS011;12775;46.994;15.498;2023-09-30T01:42:30;13.22;;;11.86;;
1987;SDS011;12775;46.994;15.498;2023-09-30T01:44:56;12.04;;;10.82;;
1987;SDS011;12775;46.994;15.498;2023-09-30T01:47:23;13.18;;;11.82;;
1987;SDS011;12775;46.994;15.498;2023-09-30T01:49:50;12.08;;;10.90;;
1987;SDS011;12775;46.994;15.498;2023-09-30T01:52:16;14.98;;;10.96;;
1987;SDS011;12775;46.994;15.498;2023-09-30T01:54:43;10.28;;;9.28;;
1987;SDS011;12775;46.994;15.498;2023-09-30T01:57:10;13.04;;;10.40;;
1987;SDS011;12775;46.994;15.498;2023-09-30T01:59:37;10.86;;;9.80;;
1987;SDS011;12775;46.994;15.498;2023-09-30T02:02:03;13.40;;;10.32;;
1987;SDS011;12775;46.994;15.498;2023-09-30T02:04:31;11.58;;;10.32;;
1987;SDS011;12775;46.994;15.498;2023-09-30T02:06:58;9.84;;;8.92;;
1987;SDS011;12775;46.994;15.498;2023-09-30T02:09:26;11.40;;;9.82;;
1987;SDS011;12775;46.994;15.498;2023-09-30T02:11:53;11.54;;;10.36;;
1987;SDS011;12775;46.994;15.498;2023-09-30T02:14:20;10.20;;;9.20;;
1987;SDS011;12775;46.994;15.498;2023-09-30T02:16:47;11.84;;;10.74;;
1987;SDS011;12775;46.994;15.498;2023-09-30T02:19:14;10.50;;;9.56;;
1987;SDS011;12775;46.994;15.498;2023-09-30T02:21:40;9.56;;;8.70;;
1987;SDS011;12775;46.994;15.498;2023-09-30T02:24:07;8.96;;;8.14;;
1987;SDS011;12775;46.994;15.498;2023-09-30T02:26:33;10.46;;;9.40;;
1987;SDS011;12775;46.994;15.498;2023-09-30T02:29:00;11.70;;;9.48;;
1987;SDS011;12775;46.994;15.498;2023-09-30T02:31:27;10.58;;;9.02;;
1987;SDS011;12775;46.994;15.498;2023-09-30T02:33:54;9.36;;;8.48;;
1987;SDS011;12775;46.994;15.498;2023-09-30T02:36:21;10.04;;;9.08;;
1987;SDS011;12775;46.994;15.498;2023-09-30T02:38:47;9.98;;;8.04;;
1987;SDS011;12775;46.994;15.498;2023-09-30T02:41:15;10.62;;;9.62;;
1987;SDS011;12775;46.994;15.498;2023-09-30T02:43:40;10.86;;;9.18;;
1987;SDS011;12775;46.994;15.498;2023-09-30T02:46:07;12.66;;;11.42;;
1987;SDS011;12775;46.994;15.498;2023-09-30T02:48:34;12.48;;;10.86;;
1987;SDS011;12775;46.994;15.498;2023-09-30T02:51:00;11.62;;;10.46;;
1987;SDS011;12775;46.994;15.498;2023-09-30T02:53:29;12.64;;;10.46;;
1987;SDS011;12775;46.994;15.498;2023-09-30T02:55:55;10.88;;;9.88;;
1987;SDS011;12775;46.994;15.498;2023-09-30T02:58:23;9.98;;;8.98;;
1987;SDS011;12775;46.994;15.498;2023-09-30T03:00:48;10.90;;;9.80;;
1987;SDS011;12775;46.994;15.498;2023-09-30T03:03:15;13.44;;;8.90;;
1987;SDS011;12775;46.994;15.498;2023-09-30T03:05:42;9.70;;;8.80;;
1987;SDS011;12775;46.994;15.498;2023-09-30T03:08:10;10.58;;;8.38;;
1987;SDS011;12775;46.994;15.498;2023-09-30T03:10:37;10.12;;;9.00;;
1987;SDS011;12775;46.994;15.498;2023-09-30T03:13:04;10.40;;;9.56;;
1987;SDS011;12775;46.994;15.498;2023-09-30T03:15:32;11.24;;;10.10;;
1987;SDS011;12775;46.994;15.498;2023-09-30T03:17:59;12.12;;;11.10;;
1987;SDS011;12775;46.994;15.498;2023-09-30T03:20:26;11.42;;;10.28;;
1987;SDS011;12775;46.994;15.498;2023-09-30T03:22:54;15.52;;;11.64;;
1987;SDS011;12775;46.994;15.498;2023-09-30T03:25:21;13.82;;;11.64;;
1987;SDS011;12775;46.994;15.498;2023-09-30T03:27:49;13.08;;;10.98;;
1987;SDS011;12775;46.994;15.498;2023-09-30T03:30:16;11.26;;;10.12;;
1987;SDS011;12775;46.994;15.498;2023-09-30T03:32:43;11.90;;;10.78;;
1987;SDS011;12775;46.994;15.498;2023-09-30T03:35:11;12.60;;;10.48;;
1987;SDS011;12775;46.994;15.498;2023-09-30T03:37:38;15.76;;;9.22;;
1987;SDS011;12775;46.994;15.498;2023-09-30T03:40:05;8.74;;;7.72;;
1987;SDS011;12775;46.994;15.498;2023-09-30T03:42:41;10.58;;;9.58;;
1987;SDS011;12775;46.994;15.498;2023-09-30T03:45:09;9.14;;;8.24;;
1987;SDS011;12775;46.994;15.498;2023-09-30T03:47:36;12.18;;;9.78;;
1987;SDS011;12775;46.994;15.498;2023-09-30T03:50:02;11.12;;;10.06;;
1987;SDS011;12775;46.994;15.498;2023-09-30T03:52:29;9.54;;;8.74;;
1987;SDS011;12775;46.994;15.498;2023-09-30T03:54:56;10.46;;;9.48;;
1987;SDS011;12775;46.994;15.498;2023-09-30T03:57:22;10.34;;;9.30;;
1987;SDS011;12775;46.994;15.498;2023-09-30T03:59:50;10.38;;;9.48;;
1987;SDS011;12775;46.994;15.498;2023-09-30T04:02:16;11.26;;;10.26;;
1987;SDS011;12775;46.994;15.498;2023-09-30T04:04:44;11.18;;;10.04;;
1987;SDS011;12775;46.994;15.498;2023-09-30T04:07:10;12.96;;;9.84;;
1987;SDS011;12775;46.994;15.498;2023-09-30T04:09:38;10.72;;;9.72;;
1987;SDS011;12775;46.994;15.498;2023-09-30T04:12:05;11.10;;;10.10;;
1987;SDS011;12775;46.994;15.498;2023-09-30T04:14:32;11.98;;;10.80;;
1987;SDS011;12775;46.994;15.498;2023-09-30T04:17:00;10.84;;;9.94;;
1987;SDS011;12775;46.994;15.498;2023-09-30T04:19:27;10.36;;;9.36;;
1987;SDS011;12775;46.994;15.498;2023-09-30T04:21:54;14.14;;;9.84;;
1987;SDS011;12775;46.994;15.498;2023-09-30T04:24:22;12.02;;;10.82;;
1987;SDS011;12775;46.994;15.498;2023-09-30T04:26:49;12.34;;;11.18;;
1987;SDS011;12775;46.994;15.498;2023-09-30T04:29:17;10.70;;;9.68;;
1987;SDS011;12775;46.994;15.498;2023-09-30T04:31:43;10.84;;;9.94;;
1987;SDS011;12775;46.994;15.498;2023-09-30T04:34:10;11.66;;;10.10;;
1987;SDS011;12775;46.994;15.498;2023-09-30T04:36:36;9.60;;;8.64;;
1987;SDS011;12775;46.994;15.498;2023-09-30T04:39:03;10.42;;;9.50;;
1987;SDS011;12775;46.994;15.498;2023-09-30T04:41:30;11.32;;;10.22;;
1987;SDS011;12775;46.994;15.498;2023-09-30T04:43:57;10.50;;;9.60;;
1987;SDS011;12775;46.994;15.498;2023-09-30T04:46:24;10.96;;;9.96;;
1987;SDS011;12775;46.994;15.498;2023-09-30T04:48:50;13.84;;;10.94;;
1987;SDS011;12775;46.994;15.498;2023-09-30T04:51:17;11.94;;;10.70;;
1987;SDS011;12775;46.994;15.498;2023-09-30T04:53:44;13.56;;;12.32;;
1987;SDS011;12775;46.994;15.498;2023-09-30T04:56:11;13.32;;;12.22;;
1987;SDS011;12775;46.994;15.498;2023-09-30T04:58:37;13.82;;;12.46;;
1987;SDS011;12775;46.994;15.498;2023-09-30T05:01:04;13.74;;;12.54;;
1987;SDS011;12775;46.994;15.498;2023-09-30T05:03:30;12.84;;;11.68;;
1987;SDS011;12775;46.994;15.498;2023-09-30T05:05:57;11.90;;;10.90;;
1987;SDS011;12775;46.994;15.498;2023-09-30T05:08:24;13.74;;;12.46;;
1987;SDS011;12775;46.994;15.498;2023-09-30T05:10:50;12.92;;;11.88;;
1987;SDS011;12775;46.994;15.498;2023-09-30T05:13:17;13.00;;;11.80;;
1987;SDS011;12775;46.994;15.498;2023-09-30T05:15:43;10.68;;;9.76;;
1987;SDS011;12775;46.994;15.498;2023-09-30T05:18:10;12.54;;;11.44;;
1987;SDS011;12775;46.994;15.498;2023-09-30T05:20:37;11.70;;;10.48;;
1987;SDS011;12775;46.994;15.498;2023-09-30T05:23:03;13.88;;;12.42;;
1987;SDS011;12775;46.994;15.498;2023-09-30T05:25:30;12.64;;;11.36;;
1987;SDS011;12775;46.994;15.498;2023-09-30T05:27:56;14.42;;;13.12;;
1987;SDS011;12775;46.994;15.498;2023-09-30T05:30:24;13.58;;;11.40;;
1987;SDS011;12775;46.994;15.498;2023-09-30T05:32:51;15.06;;;12.56;;
1987;SDS011;12775;46.994;15.498;2023-09-30T05:35:17;12.92;;;11.68;;
1987;SDS011;12775;46.994;15.498;2023-09-30T05:37:44;13.04;;;11.74;;
1987;SDS011;12775;46.994;15.498;2023-09-30T05:40:10;12.80;;;11.60;;
1987;SDS011;12775;46.994;15.498;2023-09-30T05:42:45;12.20;;;11.20;;
1987;SDS011;12775;46.994;15.498;2023-09-30T05:45:12;14.04;;;12.52;;
1987;SDS011;12775;46.994;15.498;2023-09-30T05:47:39;15.50;;;13.42;;
1987;SDS011;12775;46.994;15.498;2023-09-30T05:50:06;13.92;;;12.70;;
1987;SDS011;12775;46.994;15.498;2023-09-30T05:52:33;14.36;;;13.02;;
1987;SDS011;12775;46.994;15.498;2023-09-30T05:55:01;15.08;;;13.46;;
1987;SDS011;12775;46.994;15.498;2023-09-30T05:57:27;17.64;;;14.48;;
1987;SDS011;12775;46.994;15.498;2023-09-30T05:59:53;15.48;;;14.08;;
1987;SDS011;12775;46.994;15.498;2023-09-30T06:02:21;16.64;;;13.58;;
1987;SDS011;12775;46.994;15.498;2023-09-30T06:04:48;15.84;;;13.88;;
1987;SDS011;12775;46.994;15.498;2023-09-30T06:07:15;15.46;;;13.62;;
1987;SDS011;12775;46.994;15.498;2023-09-30T06:09:41;16.20;;;14.50;;
1987;SDS011;12775;46.994;15.498;2023-09-30T06:12:08;14.70;;;13.40;;
1987;SDS011;12775;46.994;15.498;2023-09-30T06:14:35;14.10;;;12.76;;
1987;SDS011;12775;46.994;15.498;2023-09-30T06:17:02;16.72;;;14.16;;
1987;SDS011;12775;46.994;15.498;2023-09-30T06:19:28;15.22;;;13.70;;
1987;SDS011;12775;46.994;15.498;2023-09-30T06:21:55;15.06;;;13.54;;
1987;SDS011;12775;46.994;15.498;2023-09-30T06:24:22;15.10;;;13.58;;
1987;SDS011;12775;46.994;15.498;2023-09-30T06:26:48;14.46;;;13.26;;
1987;SDS011;12775;46.994;15.498;2023-09-30T06:29:15;15.68;;;14.36;;
1987;SDS011;12775;46.994;15.498;2023-09-30T06:31:41;14.08;;;12.78;;
1987;SDS011;12775;46.994;15.498;2023-09-30T06:34:08;14.02;;;12.60;;
1987;SDS011;12775;46.994;15.498;2023-09-30T06:36:35;14.36;;;12.96;;
1987;SDS011;12775;46.994;15.498;2023-09-30T06:39:01;13.46;;;12.10;;
1987;SDS011;12775;46.994;15.498;2023-09-30T06:41:28;14.12;;;12.82;;
1987;SDS011;12775;46.994;15.498;2023-09-30T06:43:55;14.12;;;12.70;;
1987;SDS011;12775;46.994;15.498;2023-09-30T06:46:21;15.54;;;13.78;;
1987;SDS011;12775;46.994;15.498;2023-09-30T06:48:48;14.12;;;12.88;;
1987;SDS011;12775;46.994;15.498;2023-09-30T06:51:14;12.38;;;11.28;;
1987;SDS011;12775;46.994;15.498;2023-09-30T06:53:41;17.80;;;13.30;;
1987;SDS011;12775;46.994;15.498;2023-09-30T06:56:08;13.18;;;12.08;;
1987;SDS011;12775;46.994;15.498;2023-09-30T07:01:04;13.52;;;12.22;;
1987;SDS011;12775;46.994;15.498;2023-09-30T07:03:31;14.56;;;13.20;;
1987;SDS011;12775;46.994;15.498;2023-09-30T07:05:59;13.50;;;12.20;;
1987;SDS011;12775;46.994;15.498;2023-09-30T07:08:28;14.36;;;11.72;;
1987;SDS011;12775;46.994;15.498;2023-09-30T07:10:55;12.50;;;11.46;;
1987;SDS011;12775;46.994;15.498;2023-09-30T07:13:22;13.72;;;12.42;;
1987;SDS011;12775;46.994;15.498;2023-09-30T07:15:49;13.60;;;12.14;;
1987;SDS011;12775;46.994;15.498;2023-09-30T07:18:16;13.18;;;11.72;;
1987;SDS011;12775;46.994;15.498;2023-09-30T07:20:42;12.56;;;11.34;;
1987;SDS011;12775;46.994;15.498;2023-09-30T07:23:09;14.40;;;11.32;;
1987;SDS011;12775;46.994;15.498;2023-09-30T07:25:35;10.28;;;9.38;;
1987;SDS011;12775;46.994;15.498;2023-09-30T07:28:03;12.34;;;11.24;;
1987;SDS011;12775;46.994;15.498;2023-09-30T07:30:30;12.76;;;11.48;;
1987;SDS011;12775;46.994;15.498;2023-09-30T07:32:56;14.36;;;11.94;;
1987;SDS011;12775;46.994;15.498;2023-09-30T07:35:23;13.12;;;11.80;;
1987;SDS011;12775;46.994;15.498;2023-09-30T07:37:49;16.60;;;11.90;;
1987;SDS011;12775;46.994;15.498;2023-09-30T07:40:16;13.14;;;11.90;;
1987;SDS011;12775;46.994;15.498;2023-09-30T07:42:43;13.96;;;12.64;;
1987;SDS011;12775;46.994;15.498;2023-09-30T07:45:09;15.04;;;11.64;;
1987;SDS011;12775;46.994;15.498;2023-09-30T07:47:36;12.64;;;11.48;;
1987;SDS011;12775;46.994;15.498;2023-09-30T07:50:02;12.20;;;10.42;;
1987;SDS011;12775;46.994;15.498;2023-09-30T07:52:29;12.32;;;11.16;;
1987;SDS011;12775;46.994;15.498;2023-09-30T07:54:56;12.22;;;11.00;;
1987;SDS011;12775;46.994;15.498;2023-09-30T07:57:22;11.76;;;10.82;;
1987;SDS011;12775;46.994;15.498;2023-09-30T07:59:49;12.94;;;11.32;;
1987;SDS011;12775;46.994;15.498;2023-09-30T08:02:16;11.30;;;10.40;;
1987;SDS011;12775;46.994;15.498;2023-09-30T08:04:42;11.66;;;9.92;;
1987;SDS011;12775;46.994;15.498;2023-09-30T08:07:09;13.38;;;11.16;;
1987;SDS011;12775;46.994;15.498;2023-09-30T08:09:35;12.16;;;10.98;;
1987;SDS011;12775;46.994;15.498;2023-09-30T08:12:02;11.12;;;10.12;;
1987;SDS011;12775;46.994;15.498;2023-09-30T08:14:30;11.26;;;10.20;;
1987;SDS011;12775;46.994;15.498;2023-09-30T08:16:56;17.02;;;14.20;;
1987;SDS011;12775;46.994;15.498;2023-09-30T08:19:23;19.64;;;17.56;;
1987;SDS011;12775;46.994;15.498;2023-09-30T08:21:49;18.66;;;15.54;;
1987;SDS011;12775;46.994;15.498;2023-09-30T08:24:16;11.52;;;10.52;;
1987;SDS011;12775;46.994;15.498;2023-09-30T08:26:43;14.20;;;11.32;;
1987;SDS011;12775;46.994;15.498;2023-09-30T08:29:11;10.98;;;9.96;;
1987;SDS011;12775;46.994;15.498;2023-09-30T08:31:38;13.00;;;11.60;;
1987;SDS011;12775;46.994;15.498;2023-09-30T08:34:04;13.36;;;11.36;;
1987;SDS011;12775;46.994;15.498;2023-09-30T08:36:31;11.78;;;10.80;;
1987;SDS011;12775;46.994;15.498;2023-09-30T08:38:57;13.98;;;11.16;;
1987;SDS011;12775;46.994;15.498;2023-09-30T08:41:30;10.68;;;9.78;;
1987;SDS011;12775;46.994;15.498;2023-09-30T08:44:03;11.82;;;10.58;;
1987;SDS011;12775;46.994;15.498;2023-09-30T08:46:33;11.42;;;10.30;;
1987;SDS011;12775;46.994;15.498;2023-09-30T08:49:01;10.28;;;9.48;;
1987;SDS011;12775;46.994;15.498;2023-09-30T08:51:29;11.50;;;10.36;;
1987;SDS011;12775;46.994;15.498;2023-09-30T08:53:57;10.32;;;9.32;;
1987;SDS011;12775;46.994;15.498;2023-09-30T08:56:26;10.30;;;9.30;;
1987;SDS011;12775;46.994;15.498;2023-09-30T08:58:52;13.38;;;10.20;;
1987;SDS011;12775;46.994;15.498;2023-09-30T09:01:18;11.22;;;10.06;;
1987;SDS011;12775;46.994;15.498;2023-09-30T09:03:45;10.48;;;8.78;;
1987;SDS011;12775;46.994;15.498;2023-09-30T09:06:12;10.18;;;9.38;;
1987;SDS011;12775;46.994;15.498;2023-09-30T09:08:39;14.48;;;10.64;;
1987;SDS011;12775;46.994;15.498;2023-09-30T09:11:06;11.12;;;9.88;;
1987;SDS011;12775;46.994;15.498;2023-09-30T09:13:44;10.68;;;9.68;;
1987;SDS011;12775;46.994;15.498;2023-09-30T09:16:10;10.72;;;9.60;;
1987;SDS011;12775;46.994;15.498;2023-09-30T09:18:36;11.46;;;10.24;;
1987;SDS011;12775;46.994;15.498;2023-09-30T09:21:09;10.70;;;8.68;;
1987;SDS011;12775;46.994;15.498;2023-09-30T09:23:42;9.42;;;8.62;;
1987;SDS011;12775;46.994;15.498;2023-09-30T09:26:08;10.04;;;8.38;;
1987;SDS011;12775;46.994;15.498;2023-09-30T09:28:35;8.86;;;8.02;;
1987;SDS011;12775;46.994;15.498;2023-09-30T09:31:03;10.14;;;9.24;;
1987;SDS011;12775;46.994;15.498;2023-09-30T09:33:35;8.94;;;8.08;;
1987;SDS011;12775;46.994;15.498;2023-09-30T09:36:01;10.02;;;9.00;;
1987;SDS011;12775;46.994;15.498;2023-09-30T09:38:27;9.16;;;8.26;;
1987;SDS011;12775;46.994;15.498;2023-09-30T09:40:58;10.06;;;9.00;;
1987;SDS011;12775;46.994;15.498;2023-09-30T09:43:20;10.10;;;9.10;;
1987;SDS011;12775;46.994;15.498;2023-09-30T09:45:47;15.10;;;9.38;;
1987;SDS011;12775;46.994;15.498;2023-09-30T09:48:14;10.46;;;7.58;;
1987;SDS011;12775;46.994;15.498;2023-09-30T09:50:41;8.78;;;7.98;;
1987;SDS011;12775;46.994;15.498;2023-09-30T09:53:08;8.34;;;7.64;;
1987;SDS011;12775;46.994;15.498;2023-09-30T09:55:36;15.88;;;8.88;;
1987;SDS011;12775;46.994;15.498;2023-09-30T09:58:03;10.10;;;8.90;;
1987;SDS011;12775;46.994;15.498;2023-09-30T10:00:29;9.94;;;9.06;;
1987;SDS011;12775;46.994;15.498;2023-09-30T10:02:57;8.90;;;8.12;;
1987;SDS011;12775;46.994;15.498;2023-09-30T10:05:23;9.18;;;8.28;;
1987;SDS011;12775;46.994;15.498;2023-09-30T10:08:05;17.74;;;8.88;;
1987;SDS011;12775;46.994;15.498;2023-09-30T10:10:31;9.60;;;8.68;;
1987;SDS011;12775;46.994;15.498;2023-09-30T10:12:58;9.92;;;8.80;;
1987;SDS011;12775;46.994;15.498;2023-09-30T10:18:07;8.60;;;7.94;;
1987;SDS011;12775;46.994;15.498;2023-09-30T10:20:36;10.14;;;9.20;;
1987;SDS011;12775;46.994;15.498;2023-09-30T10:23:24;15.82;;;8.62;;
1987;SDS011;12775;46.994;15.498;2023-09-30T10:25:51;8.00;;;7.30;;
1987;SDS011;12775;46.994;15.498;2023-09-30T10:28:50;12.44;;;8.54;;
1987;SDS011;12775;46.994;15.498;2023-09-30T10:31:08;8.92;;;8.02;;
1987;SDS011;12775;46.994;15.498;2023-09-30T10:34:12;9.16;;;8.26;;
1987;SDS011;12775;46.994;15.498;2023-09-30T10:36:15;10.32;;;7.94;;
1987;SDS011;12775;46.994;15.498;2023-09-30T10:38:42;11.08;;;8.38;;
1987;SDS011;12775;46.994;15.498;2023-09-30T10:41:09;7.30;;;6.60;;
1987;SDS011;12775;46.994;15.498;2023-09-30T10:43:37;8.70;;;7.84;;
1987;SDS011;12775;46.994;15.498;2023-09-30T10:46:04;10.10;;;8.54;;
1987;SDS011;12775;46.994;15.498;2023-09-30T10:48:32;8.44;;;6.90;;
1987;SDS011;12775;46.994;15.498;2023-09-30T10:51:09;8.28;;;7.32;;
1987;SDS011;12775;46.994;15.498;2023-09-30T10:53:44;10.06;;;8.86;;
1987;SDS011;12775;46.994;15.498;2023-09-30T10:56:10;16.10;;;8.70;;
1987;SDS011;12775;46.994;15.498;2023-09-30T10:58:42;10.08;;;8.36;;
1987;SDS011;12775;46.994;15.498;2023-09-30T11:01:11;9.90;;;8.28;;
1987;SDS011;12775;46.994;15.498;2023-09-30T11:03:37;12.16;;;9.36;;
1987;SDS011;12775;46.994;15.498;2023-09-30T11:06:04;27.50;;;21.70;;
1987;SDS011;12775;46.994;15.498;2023-09-30T11:08:30;12.32;;;9.14;;
1987;SDS011;12775;46.994;15.498;2023-09-30T11:10:57;11.32;;;8.88;;
1987;SDS011;12775;46.994;15.498;2023-09-30T11:13:24;8.94;;;8.04;;
1987;SDS011;12775;46.994;15.498;2023-09-30T11:15:59;9.48;;;7.50;;
1987;SDS011;12775;46.994;15.498;2023-09-30T11:18:23;9.78;;;8.02;;
1987;SDS011;12775;46.994;15.498;2023-09-30T11:20:50;13.18;;;8.44;;
1987;SDS011;12775;46.994;15.498;2023-09-30T11:23:17;11.86;;;8.76;;
1987;SDS011;12775;46.994;15.498;2023-09-30T11:25:44;11.96;;;8.28;;
1987;SDS011;12775;46.994;15.498;2023-09-30T11:28:13;11.98;;;7.96;;
1987;SDS011;12775;46.994;15.498;2023-09-30T11:33:18;10.00;;;7.18;;
1987;SDS011;12775;46.994;15.498;2023-09-30T11:38:23;8.80;;;7.82;;
1987;SDS011;12775;46.994;15.498;2023-09-30T11:41:08;11.24;;;8.40;;
1987;SDS011;12775;46.994;15.498;2023-09-30T11:43:35;10.24;;;8.82;;
1987;SDS011;12775;46.994;15.498;2023-09-30T11:46:08;9.46;;;7.50;;
1987;SDS011;12775;46.994;15.498;2023-09-30T11:48:35;10.92;;;9.78;;
1987;SDS011;12775;46.994;15.498;2023-09-30T11:51:02;10.20;;;8.12;;
1987;SDS011;12775;46.994;15.498;2023-09-30T11:53:30;12.34;;;8.44;;
1987;SDS011;12775;46.994;15.498;2023-09-30T11:55:58;8.42;;;7.00;;
1987;SDS011;12775;46.994;15.498;2023-09-30T11:58:25;15.90;;;9.68;;
1987;SDS011;12775;46.994;15.498;2023-09-30T12:00:54;10.30;;;7.32;;
1987;SDS011;12775;46.994;15.498;2023-09-30T12:03:20;12.52;;;9.26;;
1987;SDS011;12775;46.994;15.498;2023-09-30T12:05:48;12.26;;;7.88;;
1987;SDS011;12775;46.994;15.498;2023-09-30T12:08:14;10.10;;;8.84;;
1987;SDS011;12775;46.994;15.498;2023-09-30T12:10:41;11.88;;;8.54;;
1987;SDS011;12775;46.994;15.498;2023-09-30T12:13:08;11.66;;;8.40;;
1987;SDS011;12775;46.994;15.498;2023-09-30T12:15:35;10.80;;;8.68;;
1987;SDS011;12775;46.994;15.498;2023-09-30T12:18:01;9.32;;;7.52;;
1987;SDS011;12775;46.994;15.498;2023-09-30T12:20:28;8.70;;;7.40;;
1987;SDS011;12775;46.994;15.498;2023-09-30T12:22:55;10.86;;;8.70;;
1987;SDS011;12775;46.994;15.498;2023-09-30T12:25:21;10.32;;;9.22;;
1987;SDS011;12775;46.994;15.498;2023-09-30T12:27:48;10.12;;;8.90;;
1987;SDS011;12775;46.994;15.498;2023-09-30T12:30:14;12.00;;;8.62;;
1987;SDS011;12775;46.994;15.498;2023-09-30T12:32:41;11.02;;;7.98;;
1987;SDS011;12775;46.994;15.498;2023-09-30T12:35:08;13.52;;;8.92;;
1987;SDS011;12775;46.994;15.498;2023-09-30T12:37:34;13.94;;;8.94;;
1987;SDS011;12775;46.994;15.498;2023-09-30T12:40:01;10.64;;;7.92;;
1987;SDS011;12775;46.994;15.498;2023-09-30T12:42:27;11.04;;;8.44;;
1987;SDS011;12775;46.994;15.498;2023-09-30T12:44:54;9.90;;;8.66;;
1987;SDS011;12775;46.994;15.498;2023-09-30T12:47:21;9.76;;;8.76;;
1987;SDS011;12775;46.994;15.498;2023-09-30T12:49:47;10.24;;;7.54;;
1987;SDS011;12775;46.994;15.498;2023-09-30T12:52:14;9.26;;;7.64;;
1987;SDS011;12775;46.994;15.498;2023-09-30T12:54:40;11.68;;;8.02;;
1987;SDS011;12775;46.994;15.498;2023-09-30T12:57:07;10.26;;;8.34;;
1987;SDS011;12775;46.994;15.498;2023-09-30T12:59:34;11.92;;;7.82;;
1987;SDS011;12775;46.994;15.498;2023-09-30T13:02:00;14.02;;;8.92;;
1987;SDS011;12775;46.994;15.498;2023-09-30T13:04:27;18.32;;;9.38;;
1987;SDS011;12775;46.994;15.498;2023-09-30T13:06:53;12.82;;;9.10;;
1987;SDS011;12775;46.994;15.498;2023-09-30T13:09:20;12.04;;;10.00;;
1987;SDS011;12775;46.994;15.498;2023-09-30T13:11:47;12.08;;;9.48;;
1987;SDS011;12775;46.994;15.498;2023-09-30T13:14:13;11.70;;;9.84;;
1987;SDS011;12775;46.994;15.498;2023-09-30T13:16:40;10.28;;;8.50;;
1987;SDS011;12775;46.994;15.498;2023-09-30T13:19:06;15.46;;;8.60;;
1987;SDS011;12775;46.994;15.498;2023-09-30T13:21:34;10.30;;;8.24;;
1987;SDS011;12775;46.994;15.498;2023-09-30T13:24:00;11.60;;;7.88;;
1987;SDS011;12775;46.994;15.498;2023-09-30T13:26:27;10.28;;;8.26;;
1987;SDS011;12775;46.994;15.498;2023-09-30T13:28:54;12.06;;;9.74;;
1987;SDS011;12775;46.994;15.498;2023-09-30T13:31:20;9.68;;;8.32;;
1987;SDS011;12775;46.994;15.498;2023-09-30T13:33:47;14.52;;;9.72;;
1987;SDS011;12775;46.994;15.498;2023-09-30T13:36:13;11.26;;;8.90;;
1987;SDS011;12775;46.994;15.498;2023-09-30T13:38:40;13.14;;;9.16;;
1987;SDS011;12775;46.994;15.498;2023-09-30T13:41:07;13.30;;;9.50;;
1987;SDS011;12775;46.994;15.498;2023-09-30T13:43:33;12.60;;;8.16;;
1987;SDS011;12775;46.994;15.498;2023-09-30T13:46:03;16.64;;;9.32;;
1987;SDS011;12775;46.994;15.498;2023-09-30T13:48:29;10.58;;;9.44;;
1987;SDS011;12775;46.994;15.498;2023-09-30T13:51:03;10.48;;;8.68;;
1987;SDS011;12775;46.994;15.498;2023-09-30T13:53:22;12.46;;;9.86;;
1987;SDS011;12775;46.994;15.498;2023-09-30T13:55:49;10.98;;;8.30;;
1987;SDS011;12775;46.994;15.498;2023-09-30T13:58:16;12.44;;;8.96;;
1987;SDS011;12775;46.994;15.498;2023-09-30T14:00:46;9.62;;;8.40;;
1987;SDS011;12775;46.994;15.498;2023-09-30T14:03:13;12.92;;;10.04;;
1987;SDS011;12775;46.994;15.498;2023-09-30T14:05:40;11.50;;;8.84;;
1987;SDS011;12775;46.994;15.498;2023-09-30T14:08:08;12.78;;;10.12;;
1987;SDS011;12775;46.994;15.498;2023-09-30T14:10:34;10.28;;;8.60;;
1987;SDS011;12775;46.994;15.498;2023-09-30T14:13:01;12.40;;;8.96;;
1987;SDS011;12775;46.994;15.498;2023-09-30T14:15:27;11.86;;;8.98;;
1987;SDS011;12775;46.994;15.498;2023-09-30T14:17:55;13.16;;;9.14;;
1987;SDS011;12775;46.994;15.498;2023-09-30T14:20:21;12.38;;;9.46;;
1987;SDS011;12775;46.994;15.498;2023-09-30T14:22:48;14.90;;;10.02;;
1987;SDS011;12775;46.994;15.498;2023-09-30T14:25:15;12.14;;;9.36;;
1987;SDS011;12775;46.994;15.498;2023-09-30T14:27:41;13.44;;;8.88;;
1987;SDS011;12775;46.994;15.498;2023-09-30T14:30:08;13.02;;;9.74;;
1987;SDS011;12775;46.994;15.498;2023-09-30T14:32:35;12.28;;;9.66;;
1987;SDS011;12775;46.994;15.498;2023-09-30T14:35:01;15.26;;;8.70;;
1987;SDS011;12775;46.994;15.498;2023-09-30T14:37:30;16.98;;;10.68;;
1987;SDS011;12775;46.994;15.498;2023-09-30T14:39:56;15.96;;;8.90;;
1987;SDS011;12775;46.994;15.498;2023-09-30T14:42:24;13.08;;;9.46;;